MSR985 HECA-KJFK
Flight info
| Callsign | MSR985 |
|---|---|
| Flight time | N/A |
| Altitude | 34000 |
| Route | CVO L617 NABSI M872 METRU DCT KOR DCT IVMEP DCT TRO DCT ARKIL/N0477F360 DCT MALOT/M083F360 DCT 54N020W 54N030W 54N040W 53N050W DCT RIKAL/N0489F380 N572A TOPPS DCT ENE PARCH4 |
| Aircraft | B77W/H-SDE1E2E3FGHIJ2J3J4J5M1RWXY/LB1D1 |
Departure
| Time | N/A |
|---|---|
| Airport | Cairo International Airport (HECA) |
Arrival
| Time | 2026-05-05 07:58 |
|---|---|
| Airport | John F. Kennedy International Airport (KJFK) |
| Time | Latitude | Longitude | Altitude | Speed | Heading |
|---|---|---|---|---|---|
| 2026-05-05 05:10 | 52.09556 | -53.49653 | 38002 ft | 476 kts | 245° |
| 2026-05-05 05:11 | 52.08185 | -53.54561 | 38002 ft | 477 kts | 245° |
| 2026-05-05 05:11 | 52.05434 | -53.64382 | 38001 ft | 477 kts | 245° |
| 2026-05-05 05:12 | 52.02675 | -53.74188 | 38001 ft | 477 kts | 245° |
| 2026-05-05 05:12 | 51.99910 | -53.83975 | 38001 ft | 477 kts | 245° |
| 2026-05-05 05:13 | 51.97158 | -53.93679 | 38001 ft | 476 kts | 245° |
| 2026-05-05 05:13 | 51.94363 | -54.03492 | 38001 ft | 476 kts | 245° |
| 2026-05-05 05:14 | 51.91600 | -54.13152 | 38001 ft | 476 kts | 245° |
| 2026-05-05 05:14 | 51.88811 | -54.22864 | 38001 ft | 475 kts | 245° |
| 2026-05-05 05:15 | 51.86018 | -54.32551 | 38001 ft | 475 kts | 245° |
| 2026-05-05 05:15 | 51.83217 | -54.42232 | 38001 ft | 475 kts | 245° |
| 2026-05-05 05:16 | 51.80411 | -54.51878 | 38002 ft | 475 kts | 244° |
| 2026-05-05 05:16 | 51.77132 | -54.61147 | 38009 ft | 475 kts | 238° |
| 2026-05-05 05:17 | 51.73650 | -54.70203 | 38002 ft | 475 kts | 238° |
| 2026-05-05 05:17 | 51.70157 | -54.79274 | 38001 ft | 475 kts | 238° |
| 2026-05-05 05:18 | 51.66686 | -54.88335 | 38002 ft | 476 kts | 238° |
| 2026-05-05 05:18 | 51.63212 | -54.97407 | 38002 ft | 476 kts | 238° |
| 2026-05-05 05:19 | 51.59730 | -55.06472 | 38001 ft | 476 kts | 238° |
| 2026-05-05 05:19 | 51.56253 | -55.15493 | 38001 ft | 476 kts | 238° |
| 2026-05-05 05:20 | 51.52741 | -55.24568 | 38001 ft | 476 kts | 238° |
| 2026-05-05 05:20 | 51.49236 | -55.33593 | 38001 ft | 476 kts | 238° |
| 2026-05-05 05:21 | 51.45752 | -55.42533 | 38001 ft | 476 kts | 238° |
| 2026-05-05 05:21 | 51.42235 | -55.51526 | 38001 ft | 476 kts | 238° |
| 2026-05-05 05:22 | 51.38710 | -55.60508 | 38002 ft | 476 kts | 238° |
| 2026-05-05 05:22 | 51.35183 | -55.69464 | 38000 ft | 476 kts | 238° |
| 2026-05-05 05:23 | 51.31645 | -55.78416 | 38003 ft | 476 kts | 238° |
| 2026-05-05 05:23 | 51.28093 | -55.87372 | 38000 ft | 476 kts | 238° |
| 2026-05-05 05:24 | 51.24541 | -55.96300 | 38001 ft | 476 kts | 238° |
| 2026-05-05 05:24 | 51.20984 | -56.05206 | 38001 ft | 476 kts | 237° |
| 2026-05-05 05:25 | 51.17441 | -56.14048 | 38001 ft | 476 kts | 237° |
| 2026-05-05 05:25 | 51.13873 | -56.22924 | 38001 ft | 476 kts | 237° |
| 2026-05-05 05:26 | 51.10296 | -56.31790 | 38001 ft | 476 kts | 237° |
| 2026-05-05 05:26 | 51.06713 | -56.40640 | 38002 ft | 476 kts | 237° |
| 2026-05-05 05:27 | 51.03118 | -56.49488 | 38001 ft | 476 kts | 237° |
| 2026-05-05 05:27 | 50.97717 | -56.62728 | 38001 ft | 477 kts | 237° |
| 2026-05-05 05:28 | 50.94103 | -56.71551 | 38003 ft | 477 kts | 237° |
| 2026-05-05 05:28 | 50.90477 | -56.80372 | 38001 ft | 477 kts | 237° |
| 2026-05-05 05:29 | 50.86850 | -56.89164 | 37999 ft | 477 kts | 237° |
| 2026-05-05 05:29 | 50.83208 | -56.97964 | 38000 ft | 478 kts | 237° |
| 2026-05-05 05:30 | 50.79586 | -57.06687 | 38009 ft | 478 kts | 237° |
| 2026-05-05 05:30 | 50.75908 | -57.15514 | 38001 ft | 478 kts | 237° |
| 2026-05-05 05:31 | 50.72266 | -57.24225 | 38000 ft | 477 kts | 237° |
| 2026-05-05 05:31 | 50.68608 | -57.32948 | 38001 ft | 476 kts | 237° |
| 2026-05-05 05:32 | 50.64946 | -57.41648 | 38001 ft | 476 kts | 236° |
| 2026-05-05 05:32 | 50.61281 | -57.50328 | 38001 ft | 475 kts | 236° |
| 2026-05-05 05:33 | 50.57617 | -57.58976 | 38001 ft | 475 kts | 236° |
| 2026-05-05 05:33 | 50.53939 | -57.67629 | 38001 ft | 475 kts | 236° |
| 2026-05-05 05:34 | 50.50261 | -57.76253 | 38001 ft | 475 kts | 236° |
| 2026-05-05 05:34 | 50.46576 | -57.84866 | 38002 ft | 475 kts | 236° |
| 2026-05-05 05:35 | 50.42879 | -57.93477 | 38002 ft | 475 kts | 236° |
| 2026-05-05 05:35 | 50.39177 | -58.02074 | 38002 ft | 476 kts | 236° |
| 2026-05-05 05:36 | 50.35471 | -58.10650 | 38002 ft | 476 kts | 236° |
| 2026-05-05 05:36 | 50.31753 | -58.19226 | 38002 ft | 476 kts | 236° |
| 2026-05-05 05:37 | 50.28030 | -58.27788 | 38002 ft | 476 kts | 236° |
| 2026-05-05 05:37 | 50.24298 | -58.36341 | 38002 ft | 476 kts | 236° |
| 2026-05-05 05:38 | 50.20562 | -58.44875 | 38002 ft | 476 kts | 236° |
| 2026-05-05 05:38 | 50.16816 | -58.53405 | 38001 ft | 476 kts | 236° |
| 2026-05-05 05:39 | 50.13062 | -58.61925 | 38001 ft | 476 kts | 236° |
| 2026-05-05 05:39 | 50.09327 | -58.70373 | 38001 ft | 476 kts | 236° |
| 2026-05-05 05:40 | 50.05567 | -58.78854 | 38001 ft | 476 kts | 235° |
| 2026-05-05 05:40 | 50.01795 | -58.87332 | 38001 ft | 476 kts | 235° |
| 2026-05-05 05:41 | 49.98023 | -58.95783 | 38001 ft | 476 kts | 235° |
| 2026-05-05 05:41 | 49.94245 | -59.04221 | 38001 ft | 476 kts | 235° |
| 2026-05-05 05:42 | 49.90457 | -59.12656 | 38001 ft | 476 kts | 235° |
| 2026-05-05 05:42 | 49.86664 | -59.21075 | 38001 ft | 476 kts | 235° |
| 2026-05-05 05:43 | 49.82870 | -59.29467 | 38001 ft | 476 kts | 235° |
| 2026-05-05 05:43 | 49.79064 | -59.37862 | 38001 ft | 476 kts | 235° |
| 2026-05-05 05:44 | 49.75256 | -59.46232 | 38001 ft | 476 kts | 235° |
| 2026-05-05 05:44 | 49.71444 | -59.54586 | 38001 ft | 476 kts | 235° |
| 2026-05-05 05:45 | 49.67616 | -59.62949 | 38001 ft | 476 kts | 235° |
| 2026-05-05 05:45 | 49.63815 | -59.71227 | 38001 ft | 476 kts | 234° |
| 2026-05-05 05:46 | 49.59978 | -59.79556 | 38001 ft | 476 kts | 234° |
| 2026-05-05 05:46 | 49.56142 | -59.87860 | 38001 ft | 476 kts | 234° |
| 2026-05-05 05:47 | 49.52296 | -59.96157 | 38001 ft | 476 kts | 234° |
| 2026-05-05 05:47 | 49.48442 | -60.04446 | 38001 ft | 476 kts | 234° |
| 2026-05-05 05:48 | 49.44584 | -60.12717 | 38001 ft | 476 kts | 234° |
| 2026-05-05 05:48 | 49.40721 | -60.20974 | 38001 ft | 476 kts | 234° |
| 2026-05-05 05:49 | 49.36848 | -60.29226 | 38001 ft | 476 kts | 234° |
| 2026-05-05 05:49 | 49.32974 | -60.37456 | 38001 ft | 476 kts | 234° |
| 2026-05-05 05:50 | 49.29090 | -60.45682 | 38001 ft | 476 kts | 234° |
| 2026-05-05 05:50 | 49.25201 | -60.53891 | 38001 ft | 476 kts | 234° |
| 2026-05-05 05:51 | 49.21307 | -60.62087 | 38001 ft | 476 kts | 234° |
| 2026-05-05 05:51 | 49.17410 | -60.70265 | 38001 ft | 476 kts | 234° |
| 2026-05-05 05:52 | 49.13504 | -60.78436 | 38001 ft | 476 kts | 234° |
| 2026-05-05 05:52 | 49.09592 | -60.86595 | 38001 ft | 476 kts | 234° |
| 2026-05-05 05:53 | 49.05672 | -60.94746 | 38001 ft | 476 kts | 234° |
| 2026-05-05 05:53 | 49.01750 | -61.02874 | 38001 ft | 476 kts | 234° |
| 2026-05-05 05:54 | 48.97848 | -61.10939 | 38001 ft | 476 kts | 233° |
| 2026-05-05 05:54 | 48.93888 | -61.19098 | 38001 ft | 476 kts | 233° |
| 2026-05-05 05:55 | 48.90614 | -61.25824 | 38001 ft | 476 kts | 233° |
| 2026-05-05 05:55 | 48.86031 | -61.35212 | 38001 ft | 476 kts | 233° |
| 2026-05-05 05:56 | 48.82078 | -61.43284 | 38001 ft | 476 kts | 233° |
| 2026-05-05 05:56 | 48.78761 | -61.50040 | 38001 ft | 476 kts | 233° |
| 2026-05-05 05:57 | 48.74820 | -61.58041 | 38001 ft | 476 kts | 233° |
| 2026-05-05 05:57 | 48.70852 | -61.66075 | 38001 ft | 476 kts | 233° |
| 2026-05-05 05:58 | 48.66879 | -61.74097 | 38001 ft | 476 kts | 233° |
| 2026-05-05 05:58 | 48.62898 | -61.82109 | 38001 ft | 476 kts | 233° |
| 2026-05-05 05:59 | 48.58914 | -61.90104 | 38001 ft | 476 kts | 233° |
| 2026-05-05 05:59 | 48.54925 | -61.98083 | 38001 ft | 476 kts | 233° |
| 2026-05-05 06:00 | 48.50925 | -62.06062 | 38001 ft | 476 kts | 233° |
| 2026-05-05 06:00 | 48.46922 | -62.14024 | 38001 ft | 476 kts | 233° |
| 2026-05-05 06:01 | 48.42915 | -62.21971 | 38001 ft | 476 kts | 233° |
| 2026-05-05 06:01 | 48.38928 | -62.29855 | 38001 ft | 476 kts | 233° |
| 2026-05-05 06:02 | 48.34912 | -62.37771 | 38001 ft | 476 kts | 233° |
| 2026-05-05 06:02 | 48.30884 | -62.45688 | 38001 ft | 476 kts | 233° |
| 2026-05-05 06:03 | 48.26858 | -62.53579 | 38001 ft | 476 kts | 232° |
| 2026-05-05 06:03 | 48.22821 | -62.61469 | 38001 ft | 476 kts | 232° |
| 2026-05-05 06:04 | 48.18785 | -62.69334 | 38001 ft | 476 kts | 232° |
| 2026-05-05 06:04 | 48.14732 | -62.77208 | 38001 ft | 476 kts | 232° |
| 2026-05-05 06:05 | 48.10680 | -62.85058 | 38001 ft | 476 kts | 232° |
| 2026-05-05 06:05 | 48.06624 | -62.92893 | 38001 ft | 476 kts | 232° |
| 2026-05-05 06:06 | 48.02564 | -63.00714 | 38001 ft | 476 kts | 232° |
| 2026-05-05 06:06 | 47.98495 | -63.08528 | 38001 ft | 476 kts | 232° |
| 2026-05-05 06:07 | 47.94451 | -63.16274 | 38001 ft | 476 kts | 232° |
| 2026-05-05 06:07 | 47.90371 | -63.24065 | 38001 ft | 476 kts | 232° |
| 2026-05-05 06:08 | 47.86289 | -63.31837 | 38001 ft | 476 kts | 232° |
| 2026-05-05 06:08 | 47.82198 | -63.39605 | 38001 ft | 476 kts | 232° |
| 2026-05-05 06:09 | 47.78109 | -63.47346 | 38001 ft | 476 kts | 232° |
| 2026-05-05 06:09 | 47.74010 | -63.55085 | 38001 ft | 476 kts | 232° |
| 2026-05-05 06:10 | 47.69910 | -63.62805 | 38001 ft | 476 kts | 232° |
| 2026-05-05 06:10 | 47.65800 | -63.70520 | 38001 ft | 476 kts | 232° |
| 2026-05-05 06:11 | 47.61706 | -63.78183 | 38001 ft | 476 kts | 232° |
| 2026-05-05 06:11 | 47.57589 | -63.85868 | 38001 ft | 476 kts | 232° |
| 2026-05-05 06:12 | 47.53460 | -63.93555 | 38001 ft | 476 kts | 231° |
| 2026-05-05 06:12 | 47.49332 | -64.01218 | 38001 ft | 476 kts | 231° |
| 2026-05-05 06:13 | 47.45199 | -64.08866 | 38001 ft | 476 kts | 231° |
| 2026-05-05 06:13 | 47.41060 | -64.16506 | 38001 ft | 476 kts | 231° |
| 2026-05-05 06:14 | 47.36913 | -64.24140 | 38001 ft | 476 kts | 231° |
| 2026-05-05 06:14 | 47.32765 | -64.31754 | 38001 ft | 476 kts | 231° |
| 2026-05-05 06:15 | 47.28613 | -64.39353 | 38001 ft | 476 kts | 231° |
| 2026-05-05 06:15 | 47.24452 | -64.46950 | 38001 ft | 476 kts | 231° |
| 2026-05-05 06:16 | 47.20288 | -64.54530 | 38001 ft | 476 kts | 231° |
| 2026-05-05 06:16 | 47.16115 | -64.62103 | 38001 ft | 476 kts | 231° |
| 2026-05-05 06:17 | 47.11943 | -64.69656 | 38001 ft | 476 kts | 231° |
| 2026-05-05 06:17 | 47.07762 | -64.77204 | 38001 ft | 476 kts | 231° |
| 2026-05-05 06:18 | 47.03579 | -64.84736 | 38001 ft | 476 kts | 231° |
| 2026-05-05 06:18 | 46.99389 | -64.92258 | 38001 ft | 476 kts | 231° |
| 2026-05-05 06:19 | 46.95221 | -64.99720 | 38001 ft | 476 kts | 231° |
| 2026-05-05 06:19 | 46.91020 | -65.07222 | 38001 ft | 477 kts | 231° |
| 2026-05-05 06:20 | 46.86814 | -65.14712 | 38001 ft | 477 kts | 231° |
| 2026-05-05 06:20 | 46.82600 | -65.22195 | 38001 ft | 477 kts | 231° |
| 2026-05-05 06:21 | 46.78381 | -65.29667 | 38001 ft | 477 kts | 231° |
| 2026-05-05 06:21 | 46.74157 | -65.37127 | 38001 ft | 477 kts | 230° |
| 2026-05-05 06:22 | 46.69929 | -65.44574 | 38002 ft | 477 kts | 230° |
| 2026-05-05 06:22 | 46.65686 | -65.52027 | 38001 ft | 477 kts | 230° |
| 2026-05-05 06:23 | 46.61442 | -65.59464 | 38001 ft | 477 kts | 230° |
| 2026-05-05 06:23 | 46.57198 | -65.66878 | 38001 ft | 477 kts | 230° |
| 2026-05-05 06:24 | 46.52960 | -65.74263 | 38001 ft | 477 kts | 230° |
| 2026-05-05 06:24 | 46.48746 | -65.81586 | 38001 ft | 477 kts | 230° |
| 2026-05-05 06:25 | 46.44429 | -65.89068 | 38001 ft | 477 kts | 230° |
| 2026-05-05 06:25 | 46.40194 | -65.96389 | 38001 ft | 477 kts | 230° |
| 2026-05-05 06:26 | 46.35899 | -66.03793 | 38001 ft | 477 kts | 230° |
| 2026-05-05 06:26 | 46.31620 | -66.11150 | 38001 ft | 477 kts | 230° |
| 2026-05-05 06:27 | 46.25230 | -66.22101 | 38002 ft | 477 kts | 230° |
| 2026-05-05 06:28 | 46.20936 | -66.29434 | 38002 ft | 478 kts | 230° |
| 2026-05-05 06:28 | 46.16636 | -66.36760 | 38001 ft | 478 kts | 230° |
| 2026-05-05 06:29 | 46.12335 | -66.44067 | 38002 ft | 478 kts | 230° |
| 2026-05-05 06:29 | 46.08026 | -66.51367 | 38002 ft | 478 kts | 230° |
| 2026-05-05 06:30 | 46.03724 | -66.58638 | 38002 ft | 477 kts | 230° |
| 2026-05-05 06:30 | 45.99409 | -66.65911 | 38000 ft | 477 kts | 230° |
| 2026-05-05 06:31 | 45.95096 | -66.73163 | 38000 ft | 477 kts | 230° |
| 2026-05-05 06:31 | 45.90795 | -66.80374 | 38000 ft | 477 kts | 229° |
| 2026-05-05 06:32 | 45.86466 | -66.87614 | 38003 ft | 477 kts | 229° |
| 2026-05-05 06:32 | 45.82140 | -66.94830 | 37999 ft | 477 kts | 229° |
| 2026-05-05 06:33 | 45.77808 | -67.02037 | 38002 ft | 477 kts | 229° |
| 2026-05-05 06:33 | 45.73470 | -67.09235 | 38001 ft | 477 kts | 229° |
| 2026-05-05 06:34 | 45.69129 | -67.16420 | 38001 ft | 477 kts | 229° |
| 2026-05-05 06:34 | 45.64796 | -67.23574 | 38001 ft | 478 kts | 229° |
| 2026-05-05 06:35 | 45.60442 | -67.30744 | 38001 ft | 478 kts | 229° |
| 2026-05-05 06:35 | 45.56083 | -67.37902 | 38001 ft | 478 kts | 229° |
| 2026-05-05 06:36 | 45.51718 | -67.45053 | 38002 ft | 478 kts | 229° |
| 2026-05-05 06:36 | 45.47349 | -67.52193 | 38001 ft | 478 kts | 229° |
| 2026-05-05 06:37 | 45.42974 | -67.59324 | 38001 ft | 478 kts | 229° |
| 2026-05-05 06:37 | 45.38631 | -67.66386 | 38001 ft | 477 kts | 229° |
| 2026-05-05 06:38 | 45.34253 | -67.73488 | 38001 ft | 477 kts | 229° |
| 2026-05-05 06:38 | 45.29837 | -67.80525 | 38001 ft | 477 kts | 228° |
| 2026-05-05 06:39 | 45.25383 | -67.87513 | 38002 ft | 477 kts | 228° |
| 2026-05-05 06:39 | 45.20929 | -67.94490 | 38001 ft | 477 kts | 228° |
| 2026-05-05 06:40 | 45.16479 | -68.01461 | 38001 ft | 477 kts | 228° |
| 2026-05-05 06:40 | 45.12021 | -68.08435 | 38001 ft | 477 kts | 228° |
| 2026-05-05 06:41 | 45.07557 | -68.15402 | 38002 ft | 477 kts | 228° |
| 2026-05-05 06:41 | 45.03093 | -68.22351 | 38001 ft | 477 kts | 228° |
| 2026-05-05 06:42 | 44.98621 | -68.29293 | 38001 ft | 477 kts | 228° |
| 2026-05-05 06:42 | 44.94908 | -68.35046 | 38002 ft | 477 kts | 227° |
| 2026-05-05 06:43 | 44.89671 | -68.43137 | 38001 ft | 477 kts | 227° |
| 2026-05-05 06:43 | 44.85946 | -68.48878 | 38002 ft | 477 kts | 227° |
| 2026-05-05 06:44 | 44.81457 | -68.55782 | 38001 ft | 477 kts | 227° |
| 2026-05-05 06:44 | 44.76965 | -68.62672 | 38001 ft | 477 kts | 227° |
| 2026-05-05 06:45 | 44.72472 | -68.69548 | 38000 ft | 477 kts | 227° |
| 2026-05-05 06:45 | 44.67976 | -68.76410 | 38001 ft | 477 kts | 227° |
| 2026-05-05 06:46 | 44.63480 | -68.83257 | 38002 ft | 477 kts | 227° |
| 2026-05-05 06:46 | 44.58968 | -68.90110 | 37999 ft | 477 kts | 227° |
| 2026-05-05 06:47 | 44.54461 | -68.96940 | 38002 ft | 477 kts | 227° |
| 2026-05-05 06:47 | 44.49944 | -69.03766 | 38000 ft | 477 kts | 227° |
| 2026-05-05 06:48 | 44.45428 | -69.10576 | 38002 ft | 477 kts | 227° |
| 2026-05-05 06:48 | 44.40905 | -69.17379 | 38001 ft | 477 kts | 227° |
| 2026-05-05 06:49 | 44.36381 | -69.24168 | 38001 ft | 477 kts | 227° |
| 2026-05-05 06:49 | 44.31854 | -69.30943 | 38001 ft | 477 kts | 227° |
| 2026-05-05 06:50 | 44.27318 | -69.37717 | 38001 ft | 477 kts | 227° |
| 2026-05-05 06:50 | 44.22813 | -69.44427 | 38002 ft | 477 kts | 227° |
| 2026-05-05 06:51 | 44.18271 | -69.51177 | 38001 ft | 477 kts | 227° |
| 2026-05-05 06:51 | 44.13727 | -69.57913 | 38001 ft | 477 kts | 227° |
| 2026-05-05 06:52 | 44.09179 | -69.64638 | 38001 ft | 477 kts | 227° |
| 2026-05-05 06:52 | 44.04628 | -69.71352 | 38001 ft | 477 kts | 227° |
| 2026-05-05 06:53 | 44.00072 | -69.78059 | 38001 ft | 477 kts | 227° |
| 2026-05-05 06:53 | 43.95520 | -69.84742 | 38002 ft | 477 kts | 227° |
| 2026-05-05 06:54 | 43.90952 | -69.91433 | 38001 ft | 477 kts | 226° |
| 2026-05-05 06:54 | 43.86388 | -69.98102 | 38001 ft | 477 kts | 226° |
| 2026-05-05 06:55 | 43.81820 | -70.04761 | 38001 ft | 477 kts | 226° |
| 2026-05-05 06:55 | 43.77247 | -70.11413 | 38001 ft | 477 kts | 226° |
| 2026-05-05 06:56 | 43.72675 | -70.18046 | 38001 ft | 477 kts | 226° |
| 2026-05-05 06:56 | 43.68100 | -70.24669 | 38001 ft | 477 kts | 226° |
| 2026-05-05 06:57 | 43.63520 | -70.31283 | 38001 ft | 477 kts | 226° |
| 2026-05-05 06:57 | 43.58934 | -70.37891 | 38001 ft | 477 kts | 226° |
| 2026-05-05 06:58 | 43.54340 | -70.44495 | 38001 ft | 477 kts | 226° |
| 2026-05-05 06:58 | 43.49746 | -70.51085 | 38002 ft | 477 kts | 226° |
| 2026-05-05 06:59 | 43.45147 | -70.57667 | 38002 ft | 477 kts | 226° |
| 2026-05-05 06:59 | 43.39866 | -70.63006 | 37994 ft | 474 kts | 200° |
| 2026-05-05 07:00 | 43.33631 | -70.65930 | 38006 ft | 475 kts | 199° |
| 2026-05-05 07:00 | 43.27350 | -70.68867 | 38004 ft | 478 kts | 199° |
| 2026-05-05 07:01 | 43.21088 | -70.71901 | 37990 ft | 475 kts | 200° |
| 2026-05-05 07:01 | 43.14972 | -70.74902 | 37863 ft | 458 kts | 200° |
| 2026-05-05 07:02 | 43.09077 | -70.77790 | 37743 ft | 441 kts | 200° |
| 2026-05-05 07:02 | 43.03395 | -70.80564 | 37599 ft | 426 kts | 200° |
| 2026-05-05 07:02 | 43.00627 | -70.81913 | 37482 ft | 420 kts | 200° |
| 2026-05-05 07:03 | 42.97881 | -70.83249 | 37267 ft | 417 kts | 200° |
| 2026-05-05 07:03 | 42.95190 | -70.84557 | 37023 ft | 415 kts | 200° |
| 2026-05-05 07:03 | 42.92453 | -70.85887 | 36772 ft | 412 kts | 200° |
| 2026-05-05 07:03 | 42.89756 | -70.87196 | 36523 ft | 410 kts | 200° |
| 2026-05-05 07:04 | 42.87113 | -70.88478 | 36281 ft | 407 kts | 200° |
| 2026-05-05 07:04 | 42.84456 | -70.89766 | 36034 ft | 405 kts | 200° |
| 2026-05-05 07:04 | 42.81803 | -70.91049 | 35772 ft | 403 kts | 200° |
| 2026-05-05 07:04 | 42.79169 | -70.92322 | 35502 ft | 401 kts | 200° |
| 2026-05-05 07:05 | 42.76550 | -70.93585 | 35263 ft | 399 kts | 200° |
| 2026-05-05 07:05 | 42.73934 | -70.94846 | 35005 ft | 397 kts | 200° |
| 2026-05-05 07:05 | 42.71355 | -70.96088 | 34751 ft | 395 kts | 200° |
| 2026-05-05 07:05 | 42.68759 | -70.97338 | 34500 ft | 393 kts | 200° |
| 2026-05-05 07:06 | 42.66183 | -70.98577 | 34252 ft | 391 kts | 200° |
| 2026-05-05 07:06 | 42.63628 | -70.99806 | 34004 ft | 389 kts | 200° |
| 2026-05-05 07:06 | 42.61082 | -71.01029 | 33750 ft | 387 kts | 200° |
| 2026-05-05 07:06 | 42.58545 | -71.02246 | 33509 ft | 385 kts | 200° |
| 2026-05-05 07:07 | 42.56026 | -71.03454 | 33269 ft | 383 kts | 200° |
| 2026-05-05 07:07 | 42.53688 | -71.04574 | 33031 ft | 382 kts | 200° |
| 2026-05-05 07:07 | 42.51113 | -71.05806 | 32789 ft | 380 kts | 200° |
| 2026-05-05 07:07 | 42.48625 | -71.06996 | 32553 ft | 378 kts | 200° |
| 2026-05-05 07:08 | 42.46167 | -71.08171 | 32406 ft | 373 kts | 200° |
| 2026-05-05 07:08 | 42.41354 | -71.10468 | 32142 ft | 363 kts | 200° |
| 2026-05-05 07:08 | 42.38978 | -71.11601 | 31891 ft | 362 kts | 200° |
| 2026-05-05 07:09 | 42.36604 | -71.12732 | 31624 ft | 361 kts | 200° |
| 2026-05-05 07:09 | 42.34234 | -71.13860 | 31376 ft | 360 kts | 200° |
| 2026-05-05 07:09 | 42.31880 | -71.14980 | 31140 ft | 358 kts | 200° |
| 2026-05-05 07:09 | 42.29538 | -71.16092 | 30919 ft | 356 kts | 200° |
| 2026-05-05 07:10 | 42.27195 | -71.17205 | 30644 ft | 357 kts | 199° |
| 2026-05-05 07:10 | 42.24884 | -71.18301 | 30318 ft | 358 kts | 199° |
| 2026-05-05 07:10 | 42.22496 | -71.19434 | 30066 ft | 357 kts | 199° |
| 2026-05-05 07:10 | 42.20163 | -71.20539 | 29878 ft | 354 kts | 199° |
| 2026-05-05 07:11 | 42.17847 | -71.21635 | 29674 ft | 352 kts | 199° |
| 2026-05-05 07:11 | 42.15542 | -71.22725 | 29448 ft | 351 kts | 199° |
| 2026-05-05 07:11 | 42.13242 | -71.23812 | 29233 ft | 349 kts | 199° |
| 2026-05-05 07:11 | 42.10959 | -71.24890 | 29022 ft | 347 kts | 199° |
| 2026-05-05 07:12 | 42.08674 | -71.25968 | 28758 ft | 352 kts | 199° |
| 2026-05-05 07:12 | 42.06304 | -71.27086 | 28481 ft | 371 kts | 199° |
| 2026-05-05 07:12 | 42.03793 | -71.28270 | 28220 ft | 393 kts | 199° |
| 2026-05-05 07:12 | 42.01195 | -71.29493 | 27894 ft | 396 kts | 199° |
| 2026-05-05 07:13 | 41.98625 | -71.30702 | 27576 ft | 396 kts | 199° |
| 2026-05-05 07:13 | 41.96001 | -71.31934 | 27251 ft | 394 kts | 199° |
| 2026-05-05 07:13 | 41.93419 | -71.33147 | 26926 ft | 392 kts | 199° |
| 2026-05-05 07:13 | 41.90858 | -71.34348 | 26612 ft | 390 kts | 199° |
| 2026-05-05 07:14 | 41.88306 | -71.35544 | 26281 ft | 387 kts | 199° |
| 2026-05-05 07:14 | 41.85800 | -71.36718 | 25959 ft | 385 kts | 199° |
| 2026-05-05 07:14 | 41.83239 | -71.37917 | 25624 ft | 383 kts | 199° |
| 2026-05-05 07:14 | 41.80738 | -71.39087 | 25308 ft | 381 kts | 199° |
| 2026-05-05 07:15 | 41.78236 | -71.40256 | 24979 ft | 379 kts | 199° |
| 2026-05-05 07:15 | 41.75783 | -71.41401 | 24662 ft | 377 kts | 199° |
| 2026-05-05 07:15 | 41.73326 | -71.42558 | 24337 ft | 375 kts | 201° |
| 2026-05-05 07:15 | 41.71065 | -71.44252 | 24012 ft | 368 kts | 219° |
| 2026-05-05 07:16 | 41.69110 | -71.46482 | 24032 ft | 371 kts | 221° |
| 2026-05-05 07:16 | 41.67153 | -71.48736 | 24006 ft | 373 kts | 221° |
| 2026-05-05 07:16 | 41.65177 | -71.50996 | 24002 ft | 371 kts | 220° |
| 2026-05-05 07:16 | 41.63216 | -71.53220 | 23996 ft | 370 kts | 220° |
| 2026-05-05 07:17 | 41.61250 | -71.55433 | 23996 ft | 369 kts | 220° |
| 2026-05-05 07:17 | 41.59279 | -71.57640 | 23998 ft | 368 kts | 220° |
| 2026-05-05 07:17 | 41.57313 | -71.59834 | 24000 ft | 368 kts | 220° |
| 2026-05-05 07:17 | 41.55357 | -71.62012 | 24001 ft | 368 kts | 220° |
| 2026-05-05 07:18 | 41.53388 | -71.64202 | 24002 ft | 368 kts | 220° |
| 2026-05-05 07:18 | 41.51415 | -71.66394 | 24003 ft | 368 kts | 220° |
| 2026-05-05 07:18 | 41.49451 | -71.68572 | 24003 ft | 369 kts | 220° |
| 2026-05-05 07:18 | 41.47479 | -71.70759 | 24003 ft | 369 kts | 220° |
| 2026-05-05 07:19 | 41.45502 | -71.72951 | 24003 ft | 370 kts | 220° |
| 2026-05-05 07:19 | 41.43518 | -71.75146 | 24002 ft | 370 kts | 220° |
| 2026-05-05 07:19 | 41.41536 | -71.77339 | 24003 ft | 371 kts | 220° |
| 2026-05-05 07:19 | 41.39555 | -71.79529 | 24002 ft | 371 kts | 220° |
| 2026-05-05 07:20 | 41.37567 | -71.81726 | 24001 ft | 371 kts | 220° |
| 2026-05-05 07:20 | 41.35577 | -71.83922 | 24002 ft | 371 kts | 220° |
| 2026-05-05 07:20 | 41.33585 | -71.86119 | 24002 ft | 372 kts | 220° |
| 2026-05-05 07:20 | 41.31594 | -71.88314 | 24001 ft | 372 kts | 220° |
| 2026-05-05 07:21 | 41.29601 | -71.90507 | 24001 ft | 371 kts | 220° |
| 2026-05-05 07:21 | 41.27613 | -71.92693 | 24001 ft | 371 kts | 220° |
| 2026-05-05 07:21 | 41.25621 | -71.94882 | 23985 ft | 371 kts | 220° |
| 2026-05-05 07:21 | 41.23627 | -71.97070 | 23637 ft | 372 kts | 220° |
| 2026-05-05 07:22 | 41.21631 | -71.99259 | 23204 ft | 371 kts | 220° |
| 2026-05-05 07:22 | 41.19650 | -72.01431 | 22784 ft | 369 kts | 220° |
| 2026-05-05 07:22 | 41.17679 | -72.03591 | 22361 ft | 367 kts | 220° |
| 2026-05-05 07:22 | 41.15743 | -72.05711 | 21941 ft | 365 kts | 220° |
| 2026-05-05 07:23 | 41.13764 | -72.07875 | 21512 ft | 363 kts | 220° |
| 2026-05-05 07:23 | 41.11826 | -72.09992 | 21091 ft | 361 kts | 220° |
| 2026-05-05 07:23 | 41.10079 | -72.12324 | 20626 ft | 355 kts | 236° |
| 2026-05-05 07:23 | 41.09030 | -72.15250 | 20213 ft | 350 kts | 251° |
| 2026-05-05 07:24 | 41.08281 | -72.18302 | 19811 ft | 347 kts | 252° |
| 2026-05-05 07:24 | 41.07553 | -72.21351 | 19382 ft | 346 kts | 252° |
| 2026-05-05 07:24 | 41.06827 | -72.24386 | 18961 ft | 345 kts | 252° |
| 2026-05-05 07:24 | 41.06097 | -72.27409 | 18539 ft | 344 kts | 252° |
| 2026-05-05 07:25 | 41.05363 | -72.30416 | 18123 ft | 343 kts | 252° |
| 2026-05-05 07:25 | 41.04636 | -72.33368 | 17707 ft | 341 kts | 252° |
| 2026-05-05 07:25 | 41.03888 | -72.36393 | 17273 ft | 340 kts | 252° |
| 2026-05-05 07:25 | 41.03149 | -72.39363 | 16853 ft | 339 kts | 252° |
| 2026-05-05 07:26 | 41.02413 | -72.42319 | 16432 ft | 338 kts | 252° |
| 2026-05-05 07:26 | 41.01686 | -72.45230 | 16018 ft | 337 kts | 252° |
| 2026-05-05 07:26 | 41.00941 | -72.48210 | 15589 ft | 335 kts | 252° |
| 2026-05-05 07:26 | 41.00224 | -72.51071 | 15170 ft | 334 kts | 252° |
| 2026-05-05 07:27 | 40.99487 | -72.54013 | 14746 ft | 333 kts | 252° |
| 2026-05-05 07:27 | 40.98757 | -72.56921 | 14325 ft | 332 kts | 252° |
| 2026-05-05 07:27 | 40.98028 | -72.59818 | 13905 ft | 331 kts | 251° |
| 2026-05-05 07:27 | 40.97304 | -72.62698 | 13483 ft | 330 kts | 251° |
| 2026-05-05 07:28 | 40.96586 | -72.65546 | 13032 ft | 321 kts | 251° |
| 2026-05-05 07:28 | 40.95897 | -72.68281 | 12574 ft | 302 kts | 251° |
| 2026-05-05 07:28 | 40.95251 | -72.70839 | 12125 ft | 286 kts | 251° |
| 2026-05-05 07:28 | 40.94840 | -72.72466 | 11826 ft | 276 kts | 251° |
| 2026-05-05 07:29 | 40.94033 | -72.75656 | 11277 ft | 275 kts | 251° |
| 2026-05-05 07:29 | 40.93629 | -72.77249 | 11004 ft | 277 kts | 251° |
| 2026-05-05 07:29 | 40.92897 | -72.79585 | 10549 ft | 275 kts | 236° |
| 2026-05-05 07:29 | 40.91539 | -72.81337 | 10138 ft | 274 kts | 216° |
| 2026-05-05 07:30 | 40.89472 | -72.83296 | 9600 ft | 277 kts | 216° |
| 2026-05-05 07:30 | 40.86838 | -72.85794 | 9062 ft | 276 kts | 216° |
| 2026-05-05 07:30 | 40.85321 | -72.87238 | 9039 ft | 263 kts | 216° |
| 2026-05-05 07:31 | 40.83872 | -72.88620 | 9030 ft | 250 kts | 216° |
| 2026-05-05 07:31 | 40.82453 | -72.89974 | 9035 ft | 254 kts | 216° |
| 2026-05-05 07:31 | 40.81022 | -72.91342 | 9041 ft | 253 kts | 216° |
| 2026-05-05 07:31 | 40.79601 | -72.92701 | 9038 ft | 251 kts | 216° |
| 2026-05-05 07:32 | 40.78188 | -72.94052 | 9036 ft | 250 kts | 216° |
| 2026-05-05 07:32 | 40.76787 | -72.95392 | 9039 ft | 248 kts | 216° |
| 2026-05-05 07:32 | 40.75392 | -72.96726 | 9037 ft | 247 kts | 216° |
| 2026-05-05 07:32 | 40.74000 | -72.98055 | 9034 ft | 246 kts | 216° |
| 2026-05-05 07:33 | 40.72629 | -72.99364 | 9041 ft | 246 kts | 216° |
| 2026-05-05 07:33 | 40.71223 | -73.00705 | 9040 ft | 247 kts | 216° |
| 2026-05-05 07:33 | 40.69852 | -73.02018 | 9050 ft | 246 kts | 218° |
| 2026-05-05 07:33 | 40.68799 | -73.03735 | 9037 ft | 244 kts | 250° |
| 2026-05-05 07:34 | 40.68518 | -73.05952 | 9053 ft | 249 kts | 270° |
| 2026-05-05 07:34 | 40.68530 | -73.08254 | 9051 ft | 253 kts | 270° |
| 2026-05-05 07:34 | 40.68553 | -73.10579 | 8819 ft | 257 kts | 271° |
| 2026-05-05 07:34 | 40.68577 | -73.12960 | 8400 ft | 262 kts | 271° |
| 2026-05-05 07:35 | 40.68599 | -73.15383 | 7988 ft | 266 kts | 270° |
| 2026-05-05 07:35 | 40.68617 | -73.17834 | 7575 ft | 269 kts | 270° |
| 2026-05-05 07:35 | 40.68633 | -73.20241 | 7112 ft | 257 kts | 270° |
| 2026-05-05 07:35 | 40.68646 | -73.22536 | 6669 ft | 245 kts | 270° |
| 2026-05-05 07:36 | 40.68658 | -73.24733 | 6213 ft | 235 kts | 270° |
| 2026-05-05 07:36 | 40.68667 | -73.26677 | 5824 ft | 226 kts | 270° |
| 2026-05-05 07:36 | 40.68676 | -73.28743 | 5503 ft | 224 kts | 270° |
| 2026-05-05 07:36 | 40.68684 | -73.30808 | 5084 ft | 228 kts | 270° |
| 2026-05-05 07:37 | 40.68691 | -73.32921 | 4671 ft | 232 kts | 270° |
| 2026-05-05 07:37 | 40.68698 | -73.35057 | 4258 ft | 236 kts | 270° |
| 2026-05-05 07:37 | 40.68699 | -73.37246 | 3836 ft | 239 kts | 270° |
| 2026-05-05 07:37 | 40.68698 | -73.39399 | 3393 ft | 230 kts | 270° |
| 2026-05-05 07:38 | 40.68697 | -73.41461 | 2944 ft | 221 kts | 270° |
| 2026-05-05 07:38 | 40.68728 | -73.43430 | 2532 ft | 210 kts | 279° |
| 2026-05-05 07:38 | 40.69324 | -73.45090 | 2117 ft | 200 kts | 315° |
| 2026-05-05 07:38 | 40.70507 | -73.45878 | 1843 ft | 181 kts | 348° |
| 2026-05-05 07:39 | 40.71614 | -73.46474 | 1805 ft | 172 kts | 309° |
| 2026-05-05 07:39 | 40.72071 | -73.47907 | 1884 ft | 174 kts | 285° |
| 2026-05-05 07:39 | 40.72497 | -73.49433 | 1853 ft | 178 kts | 294° |
| 2026-05-05 07:39 | 40.73031 | -73.50881 | 1836 ft | 174 kts | 297° |
| 2026-05-05 07:40 | 40.73625 | -73.52257 | 1829 ft | 171 kts | 301° |
| 2026-05-05 07:40 | 40.74268 | -73.53593 | 1840 ft | 173 kts | 303° |
| 2026-05-05 07:40 | 40.74947 | -73.54912 | 1847 ft | 175 kts | 304° |
| 2026-05-05 07:40 | 40.75655 | -73.56234 | 1850 ft | 177 kts | 305° |
| 2026-05-05 07:41 | 40.76363 | -73.57528 | 1861 ft | 176 kts | 306° |
| 2026-05-05 07:41 | 40.77090 | -73.58842 | 1845 ft | 178 kts | 306° |
| 2026-05-05 07:41 | 40.77817 | -73.60145 | 1843 ft | 176 kts | 306° |
| 2026-05-05 07:41 | 40.78344 | -73.61562 | 1826 ft | 169 kts | 279° |
| 2026-05-05 07:42 | 40.78336 | -73.63109 | 1849 ft | 172 kts | 256° |
| 2026-05-05 07:42 | 40.77700 | -73.64419 | 1855 ft | 173 kts | 222° |
| 2026-05-05 07:42 | 40.76764 | -73.65458 | 1859 ft | 177 kts | 219° |
| 2026-05-05 07:42 | 40.75807 | -73.66431 | 1859 ft | 168 kts | 218° |
| 2026-05-05 07:43 | 40.74895 | -73.67285 | 1839 ft | 155 kts | 214° |
| 2026-05-05 07:43 | 40.73993 | -73.68031 | 1852 ft | 153 kts | 212° |
| 2026-05-05 07:43 | 40.73083 | -73.68755 | 1839 ft | 150 kts | 211° |
| 2026-05-05 07:43 | 40.72201 | -73.69450 | 1785 ft | 148 kts | 211° |
| 2026-05-05 07:44 | 40.71316 | -73.70146 | 1569 ft | 147 kts | 211° |
| 2026-05-05 07:44 | 40.70451 | -73.70826 | 1371 ft | 144 kts | 211° |
| 2026-05-05 07:44 | 40.69597 | -73.71497 | 1188 ft | 143 kts | 211° |
| 2026-05-05 07:44 | 40.68739 | -73.72171 | 1004 ft | 144 kts | 211° |
| 2026-05-05 07:45 | 40.68651 | -73.72241 | 992 ft | 144 kts | 211° |
| 2026-05-05 07:45 | 40.67796 | -73.72912 | 793 ft | 143 kts | 211° |
| 2026-05-05 07:45 | 40.66965 | -73.73564 | 617 ft | 143 kts | 211° |
| 2026-05-05 07:46 | 40.66104 | -73.74243 | 405 ft | 140 kts | 214° |
| 2026-05-05 07:46 | 40.65332 | -73.74896 | 367 ft | 143 kts | 211° |
| 2026-05-05 07:46 | 40.64443 | -73.75558 | 221 ft | 144 kts | 210° |
| 2026-05-05 07:46 | 40.63600 | -73.76166 | 648 ft | 136 kts | 208° |
| 2026-05-05 07:47 | 40.62758 | -73.76713 | 1728 ft | 138 kts | 206° |
| 2026-05-05 07:47 | 40.61791 | -73.77328 | 1792 ft | 156 kts | 206° |
| 2026-05-05 07:47 | 40.60794 | -73.77888 | 1832 ft | 162 kts | 192° |
| 2026-05-05 07:47 | 40.59699 | -73.77599 | 1842 ft | 166 kts | 146° |
| 2026-05-05 07:48 | 40.59024 | -73.76391 | 1854 ft | 165 kts | 115° |
| 2026-05-05 07:48 | 40.58589 | -73.74972 | 1857 ft | 169 kts | 110° |
| 2026-05-05 07:48 | 40.58178 | -73.73518 | 1855 ft | 170 kts | 109° |
| 2026-05-05 07:48 | 40.58116 | -73.72026 | 1828 ft | 164 kts | 71° |
| 2026-05-05 07:49 | 40.58686 | -73.70736 | 1861 ft | 167 kts | 57° |
| 2026-05-05 07:49 | 40.59298 | -73.69420 | 1853 ft | 169 kts | 58° |
| 2026-05-05 07:49 | 40.59910 | -73.68092 | 1832 ft | 171 kts | 57° |
| 2026-05-05 07:49 | 40.60748 | -73.67066 | 1832 ft | 164 kts | 27° |
| 2026-05-05 07:50 | 40.61764 | -73.66362 | 1854 ft | 167 kts | 28° |
| 2026-05-05 07:50 | 40.62780 | -73.65624 | 1850 ft | 166 kts | 28° |
| 2026-05-05 07:50 | 40.63791 | -73.64887 | 1843 ft | 166 kts | 28° |
| 2026-05-05 07:50 | 40.64801 | -73.64151 | 1841 ft | 165 kts | 28° |
| 2026-05-05 07:51 | 40.65807 | -73.63419 | 1839 ft | 165 kts | 28° |
| 2026-05-05 07:51 | 40.66808 | -73.62691 | 1837 ft | 164 kts | 28° |
| 2026-05-05 07:51 | 40.67807 | -73.61963 | 1837 ft | 164 kts | 28° |
| 2026-05-05 07:51 | 40.68803 | -73.61239 | 1838 ft | 163 kts | 28° |
| 2026-05-05 07:52 | 40.69793 | -73.60518 | 1842 ft | 163 kts | 28° |
| 2026-05-05 07:52 | 40.70789 | -73.59794 | 1845 ft | 163 kts | 28° |
| 2026-05-05 07:52 | 40.71787 | -73.59068 | 1847 ft | 164 kts | 28° |
| 2026-05-05 07:52 | 40.72792 | -73.58337 | 1851 ft | 165 kts | 27° |
| 2026-05-05 07:53 | 40.73867 | -73.57906 | 1843 ft | 161 kts | 6° |
| 2026-05-05 07:53 | 40.74963 | -73.57969 | 1819 ft | 158 kts | 335° |
| 2026-05-05 07:53 | 40.75774 | -73.58970 | 1863 ft | 165 kts | 302° |
| 2026-05-05 07:53 | 40.76048 | -73.60405 | 1838 ft | 164 kts | 264° |
| 2026-05-05 07:54 | 40.75865 | -73.61869 | 1845 ft | 158 kts | 261° |
| 2026-05-05 07:54 | 40.75704 | -73.63252 | 1821 ft | 147 kts | 261° |
| 2026-05-05 07:54 | 40.75553 | -73.64567 | 1832 ft | 144 kts | 261° |
| 2026-05-05 07:54 | 40.75389 | -73.65873 | 1839 ft | 145 kts | 254° |
| 2026-05-05 07:55 | 40.74803 | -73.66888 | 1847 ft | 144 kts | 212° |
| 2026-05-05 07:55 | 40.73974 | -73.67690 | 1845 ft | 150 kts | 221° |
| 2026-05-05 07:55 | 40.73168 | -73.68534 | 1843 ft | 145 kts | 218° |
| 2026-05-05 07:55 | 40.72355 | -73.69296 | 1841 ft | 145 kts | 214° |
| 2026-05-05 07:56 | 40.71478 | -73.70015 | 1612 ft | 148 kts | 212° |
| 2026-05-05 07:56 | 40.70607 | -73.70703 | 1412 ft | 143 kts | 211° |
| 2026-05-05 07:56 | 40.69784 | -73.71350 | 1212 ft | 133 kts | 211° |
| 2026-05-05 07:56 | 40.69009 | -73.71959 | 1047 ft | 129 kts | 211° |
| 2026-05-05 07:57 | 40.68241 | -73.72562 | 891 ft | 129 kts | 211° |
| 2026-05-05 07:57 | 40.67475 | -73.73164 | 721 ft | 128 kts | 211° |
| 2026-05-05 07:57 | 40.66713 | -73.73762 | 552 ft | 127 kts | 211° |
| 2026-05-05 07:57 | 40.65954 | -73.74358 | 383 ft | 127 kts | 211° |
| 2026-05-05 07:58 | 40.65197 | -73.74951 | 217 ft | 127 kts | 211° |
| 2026-05-05 07:58 | 40.64434 | -73.75550 | 49 ft | 128 kts | 211° |
| 2026-05-05 07:58 | 40.63719 | -73.76112 | 26 ft | 99 kts | 211° |
| 2026-05-05 07:58 | 40.63422 | -73.76345 | 29 ft | 1 kts | 211° |
| 2026-05-05 07:59 | 40.63416 | -73.76350 | 28 ft | 5 kts | 211° |
| 2026-05-05 07:59 | 40.63349 | -73.76402 | 28 ft | 14 kts | 211° |
| 2026-05-05 07:59 | 40.63265 | -73.76469 | 28 ft | 14 kts | 211° |
| 2026-05-05 08:00 | 40.63178 | -73.76537 | 26 ft | 15 kts | 211° |
| 2026-05-05 08:00 | 40.63094 | -73.76610 | 26 ft | 13 kts | 216° |
| 2026-05-05 08:00 | 40.63027 | -73.76689 | 27 ft | 13 kts | 230° |
| 2026-05-05 08:00 | 40.62978 | -73.76778 | 25 ft | 10 kts | 238° |
| 2026-05-05 08:01 | 40.62948 | -73.76847 | 25 ft | 0 kts | 240° |
| 2026-05-05 08:04 | 40.62940 | -73.76867 | 24 ft | 4 kts | 246° |
| 2026-05-05 08:04 | 40.62929 | -73.76918 | 23 ft | 7 kts | 261° |
| 2026-05-05 08:04 | 40.62938 | -73.76981 | 24 ft | 8 kts | 292° |
| 2026-05-05 08:05 | 40.62951 | -73.77053 | 23 ft | 9 kts | 258° |
| 2026-05-05 08:05 | 40.62932 | -73.77089 | 26 ft | 5 kts | 227° |
| 2026-05-05 08:05 | 40.62900 | -73.77120 | 22 ft | 6 kts | 212° |
| 2026-05-05 08:05 | 40.62858 | -73.77155 | 23 ft | 8 kts | 212° |
| 2026-05-05 08:06 | 40.62820 | -73.77209 | 24 ft | 8 kts | 253° |
| 2026-05-05 08:06 | 40.62840 | -73.77281 | 24 ft | 9 kts | 303° |
| 2026-05-05 08:06 | 40.62877 | -73.77357 | 25 ft | 10 kts | 303° |
| 2026-05-05 08:06 | 40.62919 | -73.77442 | 22 ft | 12 kts | 303° |
| 2026-05-05 08:07 | 40.62965 | -73.77536 | 25 ft | 13 kts | 302° |
| 2026-05-05 08:07 | 40.63012 | -73.77638 | 23 ft | 13 kts | 301° |
| 2026-05-05 08:07 | 40.63059 | -73.77743 | 28 ft | 13 kts | 300° |
| 2026-05-05 08:07 | 40.63106 | -73.77849 | 29 ft | 14 kts | 300° |
| 2026-05-05 08:08 | 40.63155 | -73.77955 | 29 ft | 14 kts | 305° |
| 2026-05-05 08:08 | 40.63208 | -73.78008 | 23 ft | 4 kts | 342° |
| 2026-05-05 08:08 | 40.63237 | -73.78009 | 23 ft | 5 kts | 4° |
| 2026-05-05 08:08 | 40.63277 | -73.78006 | 23 ft | 6 kts | 358° |
| 2026-05-05 08:09 | 40.63318 | -73.78036 | 24 ft | 7 kts | 308° |
| 2026-05-05 08:09 | 40.63345 | -73.78096 | 27 ft | 8 kts | 299° |
| 2026-05-05 08:09 | 40.63373 | -73.78163 | 25 ft | 9 kts | 299° |
| 2026-05-05 08:09 | 40.63404 | -73.78236 | 24 ft | 10 kts | 299° |
| 2026-05-05 08:10 | 40.63440 | -73.78315 | 27 ft | 11 kts | 302° |
| 2026-05-05 08:10 | 40.63482 | -73.78402 | 26 ft | 12 kts | 302° |
| 2026-05-05 08:10 | 40.63526 | -73.78495 | 25 ft | 12 kts | 301° |
| 2026-05-05 08:10 | 40.63572 | -73.78596 | 23 ft | 13 kts | 301° |
| 2026-05-05 08:11 | 40.63621 | -73.78705 | 27 ft | 14 kts | 301° |
| 2026-05-05 08:11 | 40.63674 | -73.78821 | 25 ft | 15 kts | 301° |
| 2026-05-05 08:11 | 40.63727 | -73.78941 | 26 ft | 15 kts | 301° |
| 2026-05-05 08:11 | 40.63782 | -73.79063 | 25 ft | 16 kts | 300° |
| 2026-05-05 08:12 | 40.63835 | -73.79184 | 24 ft | 15 kts | 300° |
| 2026-05-05 08:12 | 40.63887 | -73.79300 | 24 ft | 11 kts | 302° |
| 2026-05-05 08:12 | 40.63928 | -73.79385 | 22 ft | 11 kts | 302° |
| 2026-05-05 08:12 | 40.63956 | -73.79445 | 26 ft | 11 kts | 302° |
| 2026-05-05 08:13 | 40.64045 | -73.79514 | 22 ft | 12 kts | 356° |
| 2026-05-05 08:13 | 40.64113 | -73.79514 | 22 ft | 6 kts | 1° |
| 2026-05-05 08:13 | 40.64141 | -73.79512 | 22 ft | 2 kts | 4° |
| 2026-05-05 08:13 | 40.64167 | -73.79501 | 22 ft | 4 kts | 26° |
| 2026-05-05 08:14 | 40.64184 | -73.79485 | 23 ft | 5 kts | 42° |
| 2026-05-05 08:14 | 40.64200 | -73.79442 | 23 ft | 6 kts | 79° |
| 2026-05-05 08:14 | 40.64193 | -73.79393 | 23 ft | 0 kts | 105° |
| 2026-05-05 08:14 | 40.64190 | -73.79381 | 22 ft | 3 kts | 105° |
| 2026-05-05 08:15 | 40.64182 | -73.79344 | 24 ft | 5 kts | 107° |
| 2026-05-05 08:15 | 40.64178 | -73.79330 | 23 ft | 0 kts | 107° |